Portada
METAR-TAF:

METAR-TAF

Aeroports :

Saga, Japó

latitud: 33-09N, longitud: 130-18E, altitud: 2 m

Observació

L'informe es va fer fa 1 hora i 8 minuts, a les 13:00 UTC
Vent 8 kt del Nord/Nord-Est
Temperatura 23°C
Humitat 69%
Pressió 1008 hPa
Visibilitat 10 km o més
Escasses núvols a una alçada de 3000 ft

METAR: RJFS 161300Z 02008KT 9999 FEW030 23/17 Q1008

Hora: 23:08 (14:08 UTC)

Pronòstic

L'informe es va fer fa 3 hores i 3 minuts, a les 11:05 UTC
Pronòstic vàlid del 16 a les 12 UTC al 17 a les 18 UTC
Vent 10 kt del Nord/Nord-Est
Visibilitat 10 km o més
Escasses núvols a una alçada de 3000 ft

TAF: RJFS 161105Z 1612/1718 02010KT 9999 FEW030

Observacions i pronòstics meteorològics de més de 4000 aeroports (METAR i TAF).

Les estacions disponibles són els punts grocs i vermells al mapa.

Posi el ratolí al punt desitjat per veure el nom de l'estació.

Feu clic per veure les observacions i els pronòstics meteorològics.

Per canviar el mapa: feu clic els botons verds amb una creu de color negre per apropar; al botó verd amb un guió per allunyar la imatge; o en les fletxes verdes per a mapes adjacents.


METAR-TAF: